createdAt,value
2023-08-15T00:02:13.085Z,24.70
2023-08-15T00:04:39.983Z,24.64
2023-08-15T00:07:07.373Z,24.63
2023-08-15T00:09:34.433Z,24.64
2023-08-15T00:12:01.482Z,24.63
2023-08-15T00:14:28.497Z,24.64
2023-08-15T00:16:55.585Z,24.65
2023-08-15T00:19:22.656Z,24.67
2023-08-15T00:21:49.533Z,24.68
2023-08-15T00:24:16.500Z,24.68
2023-08-15T00:26:43.425Z,24.69
2023-08-15T00:29:10.912Z,24.69
2023-08-15T00:31:37.848Z,24.67
2023-08-15T00:34:04.874Z,24.64
2023-08-15T00:36:32.080Z,24.60
2023-08-15T00:39:03.552Z,24.58
2023-08-15T00:41:31.192Z,24.49
2023-08-15T00:43:59.715Z,24.48
2023-08-15T00:46:29.457Z,24.40
2023-08-15T00:48:57.143Z,24.33
2023-08-15T00:51:24.402Z,24.31
2023-08-15T00:53:52.516Z,24.31
2023-08-15T00:56:21.580Z,24.31
2023-08-15T00:58:48.759Z,24.28
2023-08-15T01:01:18.914Z,24.24
2023-08-15T01:03:48.078Z,24.22
2023-08-15T01:06:16.610Z,24.20
2023-08-15T01:08:43.664Z,24.19
2023-08-15T01:11:11.138Z,24.17
2023-08-15T01:14:01.586Z,24.12
2023-08-15T01:16:37.833Z,24.11
2023-08-15T01:19:31.287Z,24.05
2023-08-15T01:22:00.344Z,24.04
2023-08-15T01:24:28.057Z,24.03
2023-08-15T01:26:54.970Z,24.01
2023-08-15T01:29:21.909Z,24.16
2023-08-15T01:32:01.683Z,23.72
2023-08-15T01:34:38.895Z,23.37
2023-08-15T01:37:12.111Z,23.17
2023-08-15T01:39:41.948Z,23.08
2023-08-15T01:42:12.006Z,22.90
2023-08-15T01:44:39.179Z,22.73
2023-08-15T01:47:07.190Z,22.57
2023-08-15T01:49:34.087Z,22.59
2023-08-15T01:52:01.175Z,22.56
2023-08-15T01:54:28.714Z,22.42
2023-08-15T01:56:57.605Z,22.26
2023-08-15T01:59:24.777Z,22.19
2023-08-15T02:01:51.888Z,22.09
2023-08-15T02:04:18.791Z,21.93
2023-08-15T02:06:45.757Z,21.88
2023-08-15T02:09:12.785Z,21.82
2023-08-15T02:11:39.799Z,21.90
2023-08-15T02:14:06.800Z,21.98
2023-08-15T02:16:33.724Z,22.03
2023-08-15T02:19:00.661Z,22.10
2023-08-15T02:21:27.629Z,22.17
2023-08-15T02:23:54.798Z,22.24
2023-08-15T02:26:21.891Z,22.28
2023-08-15T02:28:48.828Z,22.18
2023-08-15T02:31:15.773Z,22.04
2023-08-15T02:33:42.775Z,21.93
2023-08-15T02:36:09.846Z,21.89
2023-08-15T02:38:38.183Z,21.85
2023-08-15T02:41:06.535Z,21.82
2023-08-15T02:43:33.506Z,21.83
2023-08-15T02:46:00.492Z,21.82
2023-08-15T02:48:27.531Z,21.80
2023-08-15T02:50:54.526Z,21.82
2023-08-15T02:53:21.455Z,21.89
2023-08-15T02:55:52.255Z,21.92
2023-08-15T02:58:19.508Z,21.94
2023-08-15T03:00:46.819Z,21.97
2023-08-15T03:03:15.456Z,21.98
2023-08-15T03:05:42.486Z,21.91
2023-08-15T03:08:09.518Z,21.87
2023-08-15T03:10:39.878Z,21.83
2023-08-15T03:13:06.816Z,21.73
2023-08-15T03:15:33.815Z,21.63
2023-08-15T03:18:00.950Z,21.59
2023-08-15T03:20:31.015Z,21.56
2023-08-15T03:22:58.022Z,21.49
2023-08-15T03:25:25.068Z,21.39
2023-08-15T03:27:52.113Z,21.27
2023-08-15T03:30:19.716Z,21.30
2023-08-15T03:32:47.009Z,21.43
2023-08-15T03:35:13.985Z,21.58
2023-08-15T03:37:42.058Z,21.72
2023-08-15T03:40:10.028Z,21.82
2023-08-15T03:42:37.013Z,21.91
2023-08-15T03:45:06.757Z,22.01
2023-08-15T03:47:33.733Z,22.07
2023-08-15T03:50:01.047Z,22.12
2023-08-15T03:52:28.187Z,22.10
2023-08-15T03:54:55.190Z,22.12
2023-08-15T03:57:23.201Z,22.15
2023-08-15T03:59:50.294Z,22.21
2023-08-15T04:02:18.550Z,22.32
2023-08-15T04:04:45.484Z,22.36
2023-08-15T04:07:12.389Z,22.35
2023-08-15T04:09:39.293Z,22.36
2023-08-15T04:12:07.027Z,22.38
2023-08-15T04:14:34.035Z,22.42
2023-08-15T04:17:01.046Z,22.48
2023-08-15T04:19:28.040Z,22.51
2023-08-15T04:21:55.032Z,22.54
2023-08-15T04:24:22.022Z,22.66
2023-08-15T04:26:49.227Z,22.75
2023-08-15T04:29:16.202Z,22.86
2023-08-15T04:31:43.177Z,22.94
2023-08-15T04:34:10.130Z,22.98
2023-08-15T04:36:38.561Z,22.91
2023-08-15T04:39:06.602Z,22.86
2023-08-15T04:41:34.228Z,22.80
2023-08-15T04:44:02.906Z,22.75
2023-08-15T04:46:30.005Z,22.82
2023-08-15T04:48:56.996Z,22.90
2023-08-15T04:51:23.989Z,23.04
2023-08-15T04:53:51.187Z,23.11
2023-08-15T04:56:19.621Z,23.03
2023-08-15T04:58:46.610Z,23.00
2023-08-15T05:01:13.671Z,23.01
2023-08-15T05:03:43.350Z,23.05
2023-08-15T05:06:10.343Z,23.14
2023-08-15T05:08:57.554Z,23.25
2023-08-15T05:12:26.323Z,23.31
2023-08-15T05:15:07.284Z,23.37
2023-08-15T05:17:34.590Z,23.45
2023-08-15T05:20:02.285Z,23.49
2023-08-15T05:22:32.552Z,23.51
2023-08-15T05:25:00.032Z,23.58
2023-08-15T05:27:28.354Z,23.58
2023-08-15T05:29:56.974Z,23.56
2023-08-15T05:32:24.354Z,23.55
2023-08-15T05:34:51.395Z,23.44
2023-08-15T05:37:19.944Z,23.33
2023-08-15T05:39:47.930Z,23.25
2023-08-15T05:42:18.999Z,23.20
2023-08-15T05:44:47.160Z,23.23
2023-08-15T05:47:14.623Z,23.29
2023-08-15T05:49:43.342Z,23.34
2023-08-15T05:52:10.595Z,23.36
2023-08-15T05:54:37.849Z,23.40
2023-08-15T05:57:05.664Z,23.40
2023-08-15T05:59:32.715Z,23.44
2023-08-15T06:02:00.688Z,23.49
2023-08-15T06:04:28.328Z,23.50
2023-08-15T06:06:55.361Z,23.49
2023-08-15T06:09:22.443Z,23.37
2023-08-15T06:11:51.411Z,23.34
2023-08-15T06:14:21.624Z,23.38
2023-08-15T06:16:49.529Z,23.35
2023-08-15T06:19:17.286Z,23.34
2023-08-15T06:21:44.497Z,23.36
2023-08-15T06:24:13.349Z,23.32
2023-08-15T06:26:42.233Z,23.30
2023-08-15T06:29:09.837Z,23.34
2023-08-15T06:31:37.395Z,23.31
2023-08-15T06:34:04.981Z,23.29
2023-08-15T06:36:32.811Z,23.32
2023-08-15T06:39:00.159Z,23.39
2023-08-15T06:41:27.379Z,23.40
2023-08-15T06:43:56.343Z,23.38
2023-08-15T06:46:26.573Z,23.39
2023-08-15T06:48:53.538Z,23.44
2023-08-15T06:51:20.800Z,23.43
2023-08-15T06:53:50.956Z,23.47
2023-08-15T06:56:18.349Z,23.44
2023-08-15T06:58:45.400Z,23.42
2023-08-15T07:01:13.969Z,23.43
2023-08-15T07:03:41.118Z,23.46
2023-08-15T07:06:08.261Z,23.51
2023-08-15T07:08:35.357Z,23.50
2023-08-15T07:11:04.005Z,23.55
2023-08-15T07:13:32.422Z,23.60
2023-08-15T07:15:59.524Z,23.67
2023-08-15T07:18:26.729Z,23.66
2023-08-15T07:20:54.447Z,23.73
2023-08-15T07:23:21.879Z,23.75
2023-08-15T07:25:49.285Z,23.72
2023-08-15T07:28:16.470Z,23.73
2023-08-15T07:30:47.404Z,23.73
2023-08-15T07:33:15.381Z,23.80
2023-08-15T07:35:43.487Z,23.88
2023-08-15T07:38:10.610Z,23.91
2023-08-15T07:40:38.232Z,23.88
2023-08-15T07:43:05.398Z,23.84
2023-08-15T07:45:32.701Z,23.87
2023-08-15T07:47:59.959Z,23.94
2023-08-15T07:50:29.870Z,23.76
2023-08-15T07:52:59.628Z,23.74
2023-08-15T07:55:33.197Z,23.66
2023-08-15T07:58:00.892Z,23.64
2023-08-15T08:00:27.933Z,23.71
2023-08-15T08:02:54.968Z,23.84
2023-08-15T08:05:23.365Z,23.86
2023-08-15T08:07:50.869Z,23.92
2023-08-15T08:10:18.073Z,24.03
2023-08-15T08:12:47.360Z,24.06
2023-08-15T08:15:14.768Z,24.02
2023-08-15T08:17:41.985Z,24.08
2023-08-15T08:20:18.762Z,24.05
2023-08-15T08:22:45.714Z,24.01
2023-08-15T08:25:20.657Z,23.98
2023-08-15T08:27:48.182Z,24.04
2023-08-15T08:30:17.833Z,24.03
2023-08-15T08:32:45.360Z,24.04
2023-08-15T08:35:12.881Z,24.08
2023-08-15T08:37:40.176Z,24.14
2023-08-15T08:40:08.453Z,24.16
2023-08-15T08:42:36.141Z,24.17
2023-08-15T08:45:04.380Z,24.23
2023-08-15T08:47:34.477Z,24.32
2023-08-15T08:50:02.281Z,24.39
2023-08-15T08:52:29.841Z,24.42
2023-08-15T08:54:57.787Z,24.42
2023-08-15T08:57:30.976Z,24.45
2023-08-15T08:59:59.771Z,24.51
2023-08-15T09:02:27.596Z,24.66
2023-08-15T09:04:56.931Z,24.84
2023-08-15T09:07:24.441Z,24.98
2023-08-15T09:09:51.664Z,24.99
2023-08-15T09:12:35.352Z,25.00
2023-08-15T09:15:02.652Z,25.10
2023-08-15T09:17:30.125Z,25.15
2023-08-15T09:19:57.149Z,25.27
2023-08-15T09:22:25.971Z,25.30
2023-08-15T09:24:53.144Z,25.34
2023-08-15T09:27:20.523Z,25.35
2023-08-15T09:29:48.211Z,25.42
2023-08-15T09:32:15.173Z,25.59
2023-08-15T09:34:42.150Z,25.70
2023-08-15T09:37:10.047Z,25.75
2023-08-15T09:39:39.247Z,25.88
2023-08-15T09:42:06.787Z,25.97
2023-08-15T09:44:35.941Z,25.84
2023-08-15T09:47:03.745Z,25.80
2023-08-15T09:49:31.273Z,25.91
2023-08-15T09:52:02.267Z,25.98
2023-08-15T09:54:31.609Z,26.07
2023-08-15T09:56:58.897Z,26.26
2023-08-15T09:59:26.323Z,26.42
2023-08-15T10:01:56.462Z,26.59
2023-08-15T10:04:26.942Z,26.72
2023-08-15T10:06:53.921Z,26.74
2023-08-15T10:09:21.174Z,26.78
2023-08-15T10:11:48.965Z,26.90
2023-08-15T10:14:19.919Z,27.01
2023-08-15T10:16:47.903Z,27.13
2023-08-15T10:19:18.933Z,27.11
2023-08-15T10:21:51.683Z,27.12
2023-08-15T10:24:19.303Z,27.09
2023-08-15T10:26:47.543Z,26.89
2023-08-15T10:29:14.690Z,26.86
2023-08-15T10:31:42.377Z,26.85
2023-08-15T10:34:11.506Z,26.96
2023-08-15T10:36:43.371Z,26.86
2023-08-15T10:39:11.010Z,26.84
2023-08-15T10:41:38.293Z,26.80
2023-08-15T10:44:07.320Z,26.75
2023-08-15T10:46:36.666Z,26.68
2023-08-15T10:49:09.262Z,26.61
2023-08-15T10:51:42.358Z,26.62
2023-08-15T10:54:15.143Z,26.82
2023-08-15T10:56:43.467Z,26.72
2023-08-15T10:59:16.119Z,26.73
2023-08-15T11:01:46.836Z,26.85
2023-08-15T11:04:16.416Z,26.73
2023-08-15T11:06:49.003Z,26.70
2023-08-15T11:09:17.561Z,26.71
2023-08-15T11:11:49.864Z,26.83
2023-08-15T11:14:18.937Z,26.92
2023-08-15T11:16:47.604Z,26.91
2023-08-15T11:19:19.422Z,26.89
2023-08-15T11:21:47.681Z,26.80
2023-08-15T11:24:15.122Z,26.75
2023-08-15T11:26:42.556Z,26.72
2023-08-15T11:29:12.610Z,26.58
2023-08-15T11:31:40.087Z,26.68
2023-08-15T11:34:07.971Z,26.83
2023-08-15T11:36:34.923Z,26.62
2023-08-15T11:39:02.296Z,26.52
2023-08-15T11:41:29.630Z,26.56
2023-08-15T11:43:57.420Z,26.52
2023-08-15T11:46:26.981Z,26.56
2023-08-15T11:48:55.893Z,26.67
2023-08-15T11:51:23.228Z,26.61
2023-08-15T11:53:54.317Z,26.60
2023-08-15T11:56:22.893Z,26.62
2023-08-15T11:58:50.219Z,26.37
2023-08-15T12:01:18.362Z,26.23
2023-08-15T12:03:45.672Z,26.16
2023-08-15T12:06:16.026Z,26.12
2023-08-15T12:08:46.118Z,25.95
2023-08-15T12:11:13.612Z,25.98
2023-08-15T12:13:42.389Z,26.16
2023-08-15T12:16:10.878Z,26.37
2023-08-15T12:18:40.452Z,26.67
2023-08-15T12:21:13.704Z,26.91
2023-08-15T12:23:41.509Z,27.03
2023-08-15T12:26:08.846Z,26.96
2023-08-15T12:28:36.091Z,26.92
2023-08-15T12:31:03.488Z,26.75
2023-08-15T12:33:41.410Z,26.76
2023-08-15T12:36:15.475Z,26.90
2023-08-15T12:38:43.911Z,26.90
2023-08-15T12:41:11.399Z,26.72
2023-08-15T12:43:57.832Z,26.52
2023-08-15T12:46:24.885Z,26.45
2023-08-15T12:48:51.942Z,26.40
2023-08-15T12:51:19.403Z,26.44
2023-08-15T12:53:46.518Z,26.62
2023-08-15T12:56:13.611Z,26.67
2023-08-15T12:58:40.649Z,26.59
2023-08-15T13:01:07.786Z,26.71
2023-08-15T13:03:34.840Z,26.64
2023-08-15T13:06:01.843Z,26.63
2023-08-15T13:08:28.813Z,26.61
2023-08-15T13:10:58.287Z,26.56
2023-08-15T13:13:25.655Z,26.62
2023-08-15T13:15:52.925Z,26.65
2023-08-15T13:18:19.916Z,26.63
2023-08-15T13:20:47.223Z,26.48
2023-08-15T13:23:14.362Z,26.49
2023-08-15T13:25:41.414Z,26.43
2023-08-15T13:28:08.712Z,26.35
2023-08-15T13:30:36.303Z,26.43
2023-08-15T13:33:03.605Z,26.36
2023-08-15T13:35:31.776Z,26.24
2023-08-15T13:37:58.975Z,26.08
2023-08-15T13:40:26.014Z,26.11
2023-08-15T13:42:53.052Z,26.23
2023-08-15T13:45:20.474Z,26.19
2023-08-15T13:47:47.534Z,26.11
2023-08-15T13:50:15.140Z,26.14
2023-08-15T13:52:42.094Z,26.14
2023-08-15T13:55:09.671Z,26.07
2023-08-15T13:57:36.719Z,25.99
2023-08-15T14:00:04.409Z,25.87
2023-08-15T14:02:34.534Z,25.87
2023-08-15T14:05:04.221Z,25.92
2023-08-15T14:07:31.307Z,26.02
2023-08-15T14:09:58.287Z,26.05
2023-08-15T14:12:27.436Z,26.11
2023-08-15T14:14:57.221Z,26.21
2023-08-15T14:17:24.534Z,26.27
2023-08-15T14:19:51.401Z,26.28
2023-08-15T14:22:18.363Z,26.34
2023-08-15T14:24:48.673Z,26.35
2023-08-15T14:27:17.701Z,26.48
2023-08-15T14:29:46.593Z,26.66
2023-08-15T14:32:13.839Z,26.78
2023-08-15T14:34:40.835Z,26.71
2023-08-15T14:37:07.840Z,26.76
2023-08-15T14:39:34.778Z,26.85
2023-08-15T14:42:01.722Z,26.98
2023-08-15T14:44:29.359Z,27.15
2023-08-15T14:46:56.425Z,27.24
2023-08-15T14:49:23.571Z,27.46
2023-08-15T14:51:50.523Z,27.67
2023-08-15T14:54:18.540Z,28.13
2023-08-15T14:56:45.769Z,28.41
2023-08-15T14:59:13.056Z,28.74
2023-08-15T15:01:40.097Z,29.16
2023-08-15T15:04:07.764Z,29.45
2023-08-15T15:06:36.060Z,29.82
2023-08-15T15:09:04.255Z,29.91
2023-08-15T15:11:31.311Z,30.09
2023-08-15T15:13:58.548Z,30.33
2023-08-15T15:16:25.774Z,30.68
2023-08-15T15:18:52.944Z,31.05
2023-08-15T15:21:20.073Z,31.36
2023-08-15T15:23:47.197Z,31.32
2023-08-15T15:26:14.456Z,31.31
2023-08-15T15:28:41.549Z,31.54
2023-08-15T15:31:08.606Z,31.67
2023-08-15T15:33:35.672Z,31.67
2023-08-15T15:36:02.872Z,31.52
2023-08-15T15:38:29.875Z,31.52
2023-08-15T15:40:56.873Z,31.73
2023-08-15T15:43:23.879Z,31.84
2023-08-15T15:45:50.911Z,31.71
2023-08-15T15:48:18.123Z,31.73
2023-08-15T15:50:45.582Z,31.88
2023-08-15T15:53:13.360Z,32.01
2023-08-15T15:55:40.366Z,32.20
2023-08-15T15:58:07.377Z,32.46
2023-08-15T16:00:34.585Z,32.80
2023-08-15T16:03:01.658Z,33.58
2023-08-15T16:05:28.658Z,34.50
2023-08-15T16:07:56.071Z,35.20
2023-08-15T16:10:23.107Z,35.83
2023-08-15T16:12:51.782Z,36.37
2023-08-15T16:15:19.926Z,36.88
2023-08-15T16:17:47.504Z,37.11
2023-08-15T16:20:14.706Z,37.15
2023-08-15T16:22:42.633Z,37.29
2023-08-15T16:25:09.997Z,37.00
2023-08-15T16:27:37.067Z,36.83
2023-08-15T16:30:16.232Z,36.74
2023-08-15T16:32:46.878Z,36.66
2023-08-15T16:35:14.583Z,36.58
2023-08-15T16:37:41.927Z,36.42
2023-08-15T16:40:09.650Z,36.06
2023-08-15T16:42:36.744Z,35.77
2023-08-15T16:45:04.554Z,35.57
2023-08-15T16:47:31.601Z,35.30
2023-08-15T16:49:58.904Z,34.89
2023-08-15T16:52:25.908Z,34.55
2023-08-15T16:54:53.183Z,33.82
2023-08-15T16:57:21.871Z,32.92
2023-08-15T16:59:48.941Z,32.19
2023-08-15T17:02:16.095Z,31.56
2023-08-15T17:04:43.138Z,31.07
2023-08-15T17:07:10.285Z,30.66
2023-08-15T17:09:37.289Z,30.19
2023-08-15T17:12:04.788Z,29.82
2023-08-15T17:14:31.882Z,29.56
2023-08-15T17:16:59.501Z,29.34
2023-08-15T17:19:27.523Z,29.14
2023-08-15T17:21:54.782Z,28.88
2023-08-15T17:24:21.848Z,28.67
2023-08-15T17:26:49.096Z,28.44
2023-08-15T17:29:16.467Z,28.18
2023-08-15T17:31:43.631Z,28.04
2023-08-15T17:34:10.648Z,27.92
2023-08-15T17:36:37.733Z,27.79
2023-08-15T17:39:05.174Z,27.63
2023-08-15T17:41:32.923Z,27.43
2023-08-15T17:44:00.049Z,27.28
2023-08-15T17:46:27.297Z,27.14
2023-08-15T17:48:54.320Z,26.99
2023-08-15T17:51:21.384Z,26.90
2023-08-15T17:53:48.958Z,26.85
2023-08-15T17:56:16.374Z,26.82
2023-08-15T17:58:50.780Z,26.76
2023-08-15T18:01:18.443Z,26.71
2023-08-15T18:03:47.098Z,26.65
2023-08-15T18:06:15.012Z,26.55
2023-08-15T18:08:42.825Z,26.42
2023-08-15T18:11:10.364Z,26.25
2023-08-15T18:13:37.923Z,26.16
2023-08-15T18:16:05.378Z,26.05
2023-08-15T18:18:32.389Z,25.80
2023-08-15T18:20:59.398Z,25.69
2023-08-15T18:23:26.618Z,25.57
2023-08-15T18:25:53.795Z,25.50
2023-08-15T18:28:20.772Z,25.50
2023-08-15T18:30:47.791Z,25.54
2023-08-15T18:33:15.605Z,25.55
2023-08-15T18:35:43.766Z,25.54
2023-08-15T18:38:10.780Z,25.45
2023-08-15T18:40:41.081Z,25.36
2023-08-15T18:43:09.517Z,25.33
2023-08-15T18:45:43.844Z,25.32
2023-08-15T18:48:11.879Z,25.30
2023-08-15T18:50:43.359Z,25.24
2023-08-15T18:53:10.517Z,25.24
2023-08-15T18:55:37.773Z,25.19
2023-08-15T18:58:05.069Z,25.19
2023-08-15T19:00:31.921Z,25.13
2023-08-15T19:02:59.140Z,25.09
2023-08-15T19:05:26.502Z,25.00
2023-08-15T19:07:53.550Z,24.94
2023-08-15T19:10:21.138Z,24.85
2023-08-15T19:12:48.267Z,24.75
2023-08-15T19:15:19.574Z,24.69
2023-08-15T19:17:50.401Z,24.67
2023-08-15T19:20:19.099Z,24.65
2023-08-15T19:22:46.199Z,24.63
2023-08-15T19:25:13.278Z,24.67
2023-08-15T19:27:40.726Z,24.68
2023-08-15T19:30:08.594Z,24.51
2023-08-15T19:32:35.716Z,24.37
2023-08-15T19:35:04.707Z,24.21
2023-08-15T19:37:38.080Z,24.19
2023-08-15T19:40:08.379Z,23.96
2023-08-15T19:42:46.943Z,23.70
2023-08-15T19:45:14.943Z,23.63
2023-08-15T19:47:42.563Z,23.41
2023-08-15T19:50:11.572Z,23.26
2023-08-15T19:52:38.751Z,23.19
2023-08-15T19:55:06.068Z,23.17
2023-08-15T19:57:33.376Z,23.16
2023-08-15T20:00:00.693Z,23.18
2023-08-15T20:02:28.226Z,23.15
2023-08-15T20:04:55.442Z,23.09
2023-08-15T20:07:22.744Z,23.06
2023-08-15T20:10:04.011Z,23.05
2023-08-15T20:12:36.866Z,23.01
2023-08-15T20:15:04.390Z,22.98
2023-08-15T20:17:32.001Z,22.76
2023-08-15T20:19:59.490Z,22.71
2023-08-15T20:22:26.951Z,22.64
2023-08-15T20:24:54.853Z,22.58
2023-08-15T20:27:22.204Z,22.58
2023-08-15T20:29:51.798Z,22.55
2023-08-15T20:32:18.925Z,22.48
2023-08-15T20:34:46.012Z,22.52
2023-08-15T20:37:12.990Z,22.56
2023-08-15T20:39:40.025Z,22.57
2023-08-15T20:42:07.065Z,22.54
2023-08-15T20:44:34.040Z,22.49
2023-08-15T20:47:01.055Z,22.46
2023-08-15T20:49:28.348Z,22.46
2023-08-15T20:51:55.361Z,22.48
2023-08-15T20:54:22.326Z,22.45
2023-08-15T20:56:49.406Z,22.45
2023-08-15T20:59:16.370Z,22.36
2023-08-15T21:01:43.344Z,22.26
2023-08-15T21:04:10.310Z,22.22
2023-08-15T21:06:37.323Z,22.16
2023-08-15T21:09:04.554Z,22.12
2023-08-15T21:11:31.528Z,22.12
2023-08-15T21:13:59.109Z,22.13
2023-08-15T21:16:26.115Z,22.11
2023-08-15T21:18:53.042Z,22.00
2023-08-15T21:21:20.101Z,21.91
2023-08-15T21:23:47.187Z,21.91
2023-08-15T21:26:14.142Z,21.93
2023-08-15T21:28:41.143Z,21.88
2023-08-15T21:31:08.141Z,21.81
2023-08-15T21:33:35.142Z,21.84
2023-08-15T21:36:03.646Z,21.86
2023-08-15T21:38:30.605Z,21.83
2023-08-15T21:40:57.571Z,21.82
2023-08-15T21:43:24.874Z,21.83
2023-08-15T21:45:51.931Z,21.82
2023-08-15T21:48:19.860Z,21.82
2023-08-15T21:50:47.031Z,21.79
2023-08-15T21:53:13.973Z,21.80
2023-08-15T21:55:40.989Z,21.70
2023-08-15T21:58:10.948Z,21.66
2023-08-15T22:00:37.899Z,21.62
2023-08-15T22:03:06.007Z,21.60
2023-08-15T22:05:32.972Z,21.49
2023-08-15T22:08:00.053Z,21.39
2023-08-15T22:10:27.873Z,21.39
2023-08-15T22:12:55.543Z,21.37
2023-08-15T22:15:22.616Z,21.36
2023-08-15T22:17:54.799Z,21.39
2023-08-15T22:20:31.727Z,21.37
2023-08-15T22:22:58.633Z,21.35
2023-08-15T22:25:25.673Z,21.23
2023-08-15T22:27:53.223Z,21.17
2023-08-15T22:30:20.229Z,21.12
2023-08-15T22:32:47.240Z,21.08
2023-08-15T22:35:14.171Z,21.06
2023-08-15T22:37:41.165Z,21.07
2023-08-15T22:40:08.917Z,21.09
2023-08-15T22:42:35.882Z,20.99
2023-08-15T22:45:02.906Z,20.94
2023-08-15T22:47:29.880Z,20.91
2023-08-15T22:49:56.892Z,20.85
2023-08-15T22:52:23.877Z,20.78
2023-08-15T22:54:51.029Z,20.74
2023-08-15T22:57:17.962Z,20.74
2023-08-15T22:59:44.884Z,20.75
2023-08-15T23:02:11.872Z,20.80
2023-08-15T23:04:38.891Z,20.77
2023-08-15T23:07:05.873Z,20.82
2023-08-15T23:09:32.922Z,20.68
2023-08-15T23:11:59.897Z,20.62
2023-08-15T23:14:26.810Z,20.65
2023-08-15T23:16:53.764Z,20.68
2023-08-15T23:19:20.688Z,20.75
2023-08-15T23:21:47.655Z,20.65
2023-08-15T23:24:14.616Z,20.59
2023-08-15T23:26:41.567Z,20.52
2023-08-15T23:29:08.652Z,20.50
2023-08-15T23:31:39.127Z,20.48
2023-08-15T23:34:07.183Z,20.52
2023-08-15T23:36:34.408Z,20.61
2023-08-15T23:39:02.444Z,20.60
2023-08-15T23:41:29.767Z,20.56
2023-08-15T23:43:56.866Z,20.55
2023-08-15T23:46:24.599Z,20.51
2023-08-15T23:48:54.746Z,20.48
2023-08-15T23:51:22.209Z,20.48
2023-08-15T23:53:49.190Z,20.47
2023-08-15T23:56:16.331Z,20.47
2023-08-15T23:58:43.540Z,20.48
